Terminal Aerodrome Forecast
Issued by NWS

Home | Current Version | Previous Version | Text Only | Print | Product List | Glossary On
Versions: 1 2 3 4 5 6 7 8 9 10 11 12 13 14
000
FTUS43 KDVN 021120
TAFBRL
TAF
KBRL 021120Z 0212/0312 21007KT P6SM FEW130
     FM021400 23012G20KT P6SM VCTS BKN080CB
     FM021700 23015G25KT P6SM FEW080
     FM030000 22010KT P6SM SCT050 PROB30 0300/0304 4SM TSRA BKN050CB
     FM030800 32005KT P6SM SKC=

USA.gov is the U.S. government's official web portal to all federal, state and local government web resources and services.